Time;durP1;ratioP1;P1;durP2;ratioP2;P2;SDS_P1;SDS_P2;PMS_P1;PMS_P2;Temp;Humidity;BMP_temperature;BMP_pressure;BME280_temperature;BME280_humidity;BME280_pressure;Samples;Min_cycle;Max_cycle;Signal;HPM_P1;HPM_P2
2021/12/01 00:01:08;;;;;;;;;;;4.40;72.70;;;;;;4111440;28;19958;-47
2021/12/01 00:03:10;;;;;;;;;;;4.40;73.30;;;;;;4110133;28;19950;-48
2021/12/01 00:05:13;;;;;;;;;;;4.40;72.60;;;;;;4093852;28;19986;-47
2021/12/01 00:07:14;;;;;;;;;;;4.40;71.30;;;;;;4093937;28;19977;-47
2021/12/01 00:09:16;;;;;;;;;;;4.40;70.70;;;;;;4093870;28;19954;-47
2021/12/01 00:11:18;;;;;;;;;;;4.40;70.90;;;;;;4110405;28;20408;-47
2021/12/01 00:13:21;;;;;;;;;;;4.40;70.90;;;;;;4094191;28;19987;-47
2021/12/01 00:15:23;;;;;;;;;;;4.40;70.20;;;;;;4095622;28;20038;-47
2021/12/01 00:17:25;;;;;;;;;;;4.40;69.70;;;;;;4110136;28;19990;-47
2021/12/01 00:19:29;;;;;;;;;;;4.40;68.10;;;;;;4111659;28;19949;-46
2021/12/01 00:21:31;;;;;;;;;;;4.40;67.30;;;;;;4112319;28;20274;-47
2021/12/01 00:23:33;;;;;;;;;;;4.30;67.20;;;;;;4109962;28;19965;-49
2021/12/01 00:25:39;;;;;;;;;;;4.30;66.30;;;;;;4092049;28;19991;-48
2021/12/01 00:27:42;;;;;;;;;;;4.30;66.10;;;;;;4111620;28;19973;-48
2021/12/01 00:29:44;;;;;;;;;;;4.30;66.70;;;;;;4094354;28;20001;-47
2021/12/01 00:31:46;;;;;;;;;;;4.30;66.90;;;;;;4114154;28;19970;-48
2021/12/01 00:33:48;;;;;;;;;;;4.30;66.40;;;;;;4093245;28;19959;-47
2021/12/01 00:35:51;;;;;;;;;;;4.30;66.90;;;;;;4093814;28;20008;-48
2021/12/01 00:37:53;;;;;;;;;;;4.30;66.40;;;;;;4108927;28;20470;-48
2021/12/01 00:39:55;;;;;;;;;;;4.30;67.30;;;;;;4108583;28;20041;-47
2021/12/01 00:41:58;;;;;;;;;;;4.30;64.90;;;;;;4106114;28;19958;-48
2021/12/01 00:44:00;;;;;;;;;;;4.30;64.60;;;;;;4093261;28;19949;-48
2021/12/01 00:46:22;;;;;;;;;;;4.30;63.40;;;;;;4111439;28;19942;-47
2021/12/01 00:48:25;;;;;;;;;;;4.30;63.80;;;;;;4108138;28;20011;-47
2021/12/01 00:50:29;;;;;;;;;;;4.30;62.80;;;;;;4095011;28;19981;-48
2021/12/01 00:52:31;;;;;;;;;;;4.30;62.80;;;;;;4109188;28;19951;-47
2021/12/01 00:54:32;;;;;;;;;;;4.30;62.50;;;;;;4110633;28;20068;-48
2021/12/01 00:56:34;;;;;;;;;;;4.30;62.30;;;;;;4107608;28;20476;-50
2021/12/01 00:58:36;;;;;;;;;;;4.20;62.20;;;;;;4110128;28;20409;-48
2021/12/01 01:00:39;;;;;;;;;;;4.30;63.00;;;;;;4110128;28;19968;-48
2021/12/01 01:02:41;;;;;;;;;;;4.20;62.10;;;;;;4113328;28;19973;-48
2021/12/01 01:04:43;;;;;;;;;;;4.30;62.90;;;;;;4113694;28;19951;-49
2021/12/01 01:06:47;;;;;;;;;;;4.20;62.40;;;;;;4090999;28;20503;-48
2021/12/01 01:08:49;;;;;;;;;;;4.20;62.50;;;;;;4107642;28;19955;-47
2021/12/01 01:18:08;;;;;;;;;;;4.20;63.10;;;;;;4059618;29;19961;-48
2021/12/01 01:20:10;;;;;;;;;;;4.20;63.30;;;;;;4060174;29;20595;-47
2021/12/01 01:22:12;;;;;;;;;;;4.20;62.50;;;;;;4058737;29;19963;-48
2021/12/01 01:24:15;;;;;;;;;;;4.20;62.80;;;;;;4089852;28;20014;-49
2021/12/01 01:26:17;;;;;;;;;;;4.20;63.20;;;;;;4093059;28;20409;-47
2021/12/01 01:28:19;;;;;;;;;;;4.20;63.10;;;;;;4095126;28;20029;-47
2021/12/01 01:30:24;;;;;;;;;;;4.20;63.10;;;;;;4093040;28;19957;-46
2021/12/01 01:32:26;;;;;;;;;;;4.20;63.00;;;;;;4109444;28;19986;-49
2021/12/01 01:34:28;;;;;;;;;;;4.20;63.60;;;;;;4107799;28;19954;-49
2021/12/01 01:36:30;;;;;;;;;;;4.20;62.50;;;;;;4092110;28;19957;-48
2021/12/01 01:38:32;;;;;;;;;;;4.20;62.30;;;;;;4108993;28;19948;-48
2021/12/01 01:40:34;;;;;;;;;;;4.20;63.30;;;;;;4092680;28;19953;-48
2021/12/01 01:42:36;;;;;;;;;;;4.20;63.00;;;;;;4110826;28;19941;-49
2021/12/01 01:44:38;;;;;;;;;;;4.20;63.80;;;;;;4103035;28;20016;-47
2021/12/01 01:46:40;;;;;;;;;;;4.20;63.80;;;;;;4109123;28;19970;-47
2021/12/01 01:48:48;;;;;;;;;;;4.20;64.20;;;;;;4110439;28;21250;-48
2021/12/01 01:50:50;;;;;;;;;;;4.20;64.60;;;;;;4107033;28;20302;-49
2021/12/01 01:52:52;;;;;;;;;;;4.20;63.90;;;;;;4106007;28;19947;-48
2021/12/01 01:54:54;;;;;;;;;;;4.20;64.30;;;;;;4107738;28;20048;-47
2021/12/01 01:56:55;;;;;;;;;;;4.20;64.60;;;;;;4105775;28;20439;-49
2021/12/01 01:58:57;;;;;;;;;;;4.20;63.80;;;;;;4089199;28;20030;-48
2021/12/01 02:01:08;;;;;;;;;;;4.20;64.50;;;;;;4090817;28;20423;-47
2021/12/01 02:03:11;;;;;;;;;;;4.20;64.00;;;;;;4088121;28;19945;-47
2021/12/01 02:05:14;;;;;;;;;;;4.20;63.30;;;;;;4091842;28;19948;-48
2021/12/01 02:07:16;;;;;;;;;;;4.30;62.90;;;;;;4092300;28;19978;-47
2021/12/01 02:09:22;;;;;;;;;;;4.20;61.10;;;;;;4108005;28;19953;-47
2021/12/01 02:11:25;;;;;;;;;;;4.30;61.60;;;;;;4088715;28;20017;-47
2021/12/01 02:13:27;;;;;;;;;;;4.30;62.00;;;;;;4090674;28;19985;-48
2021/12/01 02:15:29;;;;;;;;;;;4.30;62.00;;;;;;4092011;28;19969;-48
2021/12/01 02:17:31;;;;;;;;;;;4.30;62.30;;;;;;4110612;28;19966;-48
2021/12/01 02:19:36;;;;;;;;;;;4.20;63.10;;;;;;4090519;28;19992;-47
2021/12/01 02:21:38;;;;;;;;;;;4.20;63.50;;;;;;4092494;28;20420;-47
2021/12/01 02:23:41;;;;;;;;;;;4.30;64.20;;;;;;4091170;28;20402;-46
2021/12/01 02:25:43;;;;;;;;;;;4.30;64.50;;;;;;4092019;28;19950;-46
2021/12/01 02:27:45;;;;;;;;;;;4.30;64.60;;;;;;4089824;28;19977;-47
2021/12/01 02:29:47;;;;;;;;;;;4.30;64.60;;;;;;4090748;28;19995;-48
2021/12/01 02:31:50;;;;;;;;;;;4.30;64.60;;;;;;4107882;28;19945;-48
2021/12/01 02:33:53;;;;;;;;;;;4.30;65.40;;;;;;4107296;28;19955;-48
2021/12/01 02:35:54;;;;;;;;;;;4.30;65.90;;;;;;4109897;28;20401;-48
2021/12/01 02:37:56;;;;;;;;;;;4.40;66.50;;;;;;4106604;28;19998;-48
2021/12/01 02:39:58;;;;;;;;;;;4.40;66.60;;;;;;4105883;28;19988;-48
2021/12/01 02:42:05;;;;;;;;;;;4.40;67.50;;;;;;4106841;28;20030;-48
2021/12/01 02:44:07;;;;;;;;;;;4.40;66.50;;;;;;4107993;28;19952;-47
2021/12/01 02:46:09;;;;;;;;;;;4.40;67.20;;;;;;4109348;28;20491;-50
2021/12/01 02:48:13;;;;;;;;;;;4.50;66.60;;;;;;4108818;28;19962;-48
2021/12/01 02:50:17;;;;;;;;;;;4.50;65.80;;;;;;4109233;28;19941;-46
2021/12/01 02:52:19;;;;;;;;;;;4.50;65.80;;;;;;4091359;28;19952;-47
2021/12/01 02:54:22;;;;;;;;;;;4.50;64.80;;;;;;4091153;28;19950;-48
2021/12/01 02:56:24;;;;;;;;;;;4.50;64.50;;;;;;4109132;28;19999;-48
2021/12/01 02:58:27;;;;;;;;;;;4.40;64.90;;;;;;4108319;28;19997;-49
2021/12/01 03:00:29;;;;;;;;;;;4.50;64.80;;;;;;4110239;28;19988;-47
2021/12/01 03:02:31;;;;;;;;;;;4.50;64.60;;;;;;4111126;28;19953;-47
2021/12/01 03:04:34;;;;;;;;;;;4.50;63.20;;;;;;4109475;28;19945;-47
2021/12/01 03:06:36;;;;;;;;;;;4.50;63.50;;;;;;4093477;28;19995;-48
2021/12/01 03:08:42;;;;;;;;;;;4.50;64.40;;;;;;4107767;28;20371;-48
2021/12/01 03:10:44;;;;;;;;;;;4.50;62.70;;;;;;4111409;28;20017;-46
2021/12/01 03:12:46;;;;;;;;;;;4.50;62.60;;;;;;4094961;28;20002;-49
2021/12/01 03:14:50;;;;;;;;;;;4.50;62.20;;;;;;4110360;28;19956;-47
2021/12/01 03:16:53;;;;;;;;;;;4.50;61.90;;;;;;4116180;28;19970;-48
2021/12/01 03:18:55;;;;;;;;;;;4.50;61.30;;;;;;4110617;28;20043;-48
2021/12/01 03:20:56;;;;;;;;;;;4.60;60.00;;;;;;4110433;28;19945;-47
2021/12/01 03:22:58;;;;;;;;;;;4.50;59.20;;;;;;4093470;28;20417;-48
2021/12/01 03:25:00;;;;;;;;;;;4.60;59.40;;;;;;4095538;28;19959;-48
2021/12/01 03:27:02;;;;;;;;;;;4.50;59.10;;;;;;4093243;28;20161;-48
2021/12/01 03:29:04;;;;;;;;;;;4.50;58.80;;;;;;4110835;28;19977;-48
2021/12/01 03:31:07;;;;;;;;;;;4.60;59.70;;;;;;4112995;28;20320;-47
2021/12/01 03:33:17;;;;;;;;;;;4.60;59.20;;;;;;4111952;28;20420;-48
2021/12/01 03:35:20;;;;;;;;;;;4.60;59.30;;;;;;4102665;28;19956;-47
2021/12/01 03:37:22;;;;;;;;;;;4.60;59.50;;;;;;4111562;28;20479;-46
2021/12/01 03:39:25;;;;;;;;;;;4.60;59.80;;;;;;4115751;28;19959;-52
2021/12/01 03:41:26;;;;;;;;;;;4.60;60.10;;;;;;4114103;28;19955;-47
2021/12/01 03:43:28;;;;;;;;;;;4.60;59.30;;;;;;4112666;28;19957;-48
2021/12/01 03:45:30;;;;;;;;;;;4.60;58.90;;;;;;4114429;28;19952;-48
2021/12/01 03:47:32;;;;;;;;;;;4.60;58.80;;;;;;4093443;28;20624;-48
2021/12/01 03:49:34;;;;;;;;;;;4.60;58.80;;;;;;4108725;28;20059;-48
2021/12/01 03:51:36;;;;;;;;;;;4.60;59.40;;;;;;4109044;28;20414;-48
2021/12/01 03:53:38;;;;;;;;;;;4.60;59.00;;;;;;4096127;28;19945;-48
2021/12/01 03:55:40;;;;;;;;;;;4.60;59.30;;;;;;4113040;28;19986;-48
2021/12/01 03:57:42;;;;;;;;;;;4.70;59.40;;;;;;4091887;28;20052;-48
2021/12/01 03:59:44;;;;;;;;;;;4.70;58.10;;;;;;4113960;28;19952;-49
2021/12/01 04:01:45;;;;;;;;;;;4.60;57.20;;;;;;4114289;28;19944;-49
2021/12/01 04:03:47;;;;;;;;;;;4.60;57.40;;;;;;4112818;28;19941;-47
2021/12/01 04:05:49;;;;;;;;;;;4.70;56.90;;;;;;4117557;28;19958;-48
2021/12/01 04:07:51;;;;;;;;;;;4.60;55.70;;;;;;4110871;28;19967;-47
2021/12/01 04:09:53;;;;;;;;;;;4.60;56.60;;;;;;4108400;28;19940;-48
2021/12/01 04:11:55;;;;;;;;;;;4.60;56.60;;;;;;4110582;28;19944;-47
2021/12/01 04:13:57;;;;;;;;;;;4.60;55.50;;;;;;4112344;28;19993;-48
2021/12/01 04:15:58;;;;;;;;;;;4.60;55.20;;;;;;4108066;28;19947;-49
2021/12/01 04:18:00;;;;;;;;;;;4.50;55.00;;;;;;4107123;28;19965;-49
2021/12/01 04:20:03;;;;;;;;;;;4.60;55.60;;;;;;4106629;28;19954;-50
2021/12/01 04:22:05;;;;;;;;;;;4.60;54.90;;;;;;4097340;28;20326;-48
2021/12/01 04:24:07;;;;;;;;;;;4.50;53.50;;;;;;4106932;28;19991;-47
2021/12/01 04:26:13;;;;;;;;;;;4.50;51.60;;;;;;4111135;28;20000;-49
2021/12/01 04:28:15;;;;;;;;;;;4.60;50.80;;;;;;4112259;28;20025;-47
2021/12/01 04:30:19;;;;;;;;;;;4.60;50.20;;;;;;4109613;28;20359;-48
2021/12/01 04:32:21;;;;;;;;;;;4.60;48.80;;;;;;4108417;28;19957;-48
2021/12/01 04:34:23;;;;;;;;;;;4.60;46.90;;;;;;4110469;28;20569;-48
2021/12/01 04:36:31;;;;;;;;;;;4.60;47.20;;;;;;4095488;28;20039;-49
2021/12/01 04:38:33;;;;;;;;;;;4.60;44.80;;;;;;4097631;28;19953;-47
2021/12/01 04:40:35;;;;;;;;;;;4.60;41.60;;;;;;4112170;28;19999;-47
2021/12/01 04:42:37;;;;;;;;;;;4.70;41.20;;;;;;4108794;28;19947;-47
2021/12/01 04:44:39;;;;;;;;;;;4.70;38.60;;;;;;4108535;28;20042;-47
2021/12/01 04:46:44;;;;;;;;;;;4.70;38.30;;;;;;4109584;28;20388;-49
2021/12/01 04:48:47;;;;;;;;;;;4.70;37.00;;;;;;4108437;28;20020;-48
2021/12/01 04:50:48;;;;;;;;;;;4.70;36.80;;;;;;4089336;28;20050;-47
2021/12/01 04:52:51;;;;;;;;;;;4.70;34.60;;;;;;4089881;28;19950;-48
2021/12/01 04:54:53;;;;;;;;;;;4.70;35.10;;;;;;4107527;28;20392;-48
2021/12/01 04:56:55;;;;;;;;;;;4.70;32.00;;;;;;4110470;28;20022;-47
2021/12/01 04:58:57;;;;;;;;;;;4.70;29.60;;;;;;4093556;28;19945;-47
2021/12/01 05:01:00;;;;;;;;;;;4.70;29.60;;;;;;4107574;28;19987;-46
2021/12/01 05:03:02;;;;;;;;;;;4.70;30.50;;;;;;4107319;28;20423;-46
2021/12/01 05:05:23;;;;;;;;;;;4.80;29.70;;;;;;4095744;28;20040;-47
2021/12/01 05:07:25;;;;;;;;;;;4.80;29.40;;;;;;4108507;28;20439;-46
2021/12/01 05:09:27;;;;;;;;;;;4.70;28.90;;;;;;4108915;28;20452;-48
2021/12/01 05:11:29;;;;;;;;;;;4.80;29.50;;;;;;4093228;28;20038;-48
2021/12/01 05:13:44;;;;;;;;;;;4.80;29.50;;;;;;4093499;28;19961;-48
2021/12/01 05:15:46;;;;;;;;;;;4.80;30.40;;;;;;4105084;28;19950;-47
2021/12/01 05:17:49;;;;;;;;;;;4.80;29.90;;;;;;4093635;28;19975;-48
2021/12/01 05:19:51;;;;;;;;;;;4.80;29.50;;;;;;4104255;28;19988;-48
2021/12/01 05:21:54;;;;;;;;;;;4.80;29.50;;;;;;4091345;28;20302;-47
2021/12/01 05:23:56;;;;;;;;;;;4.80;28.10;;;;;;4109641;28;20048;-48
2021/12/01 05:25:58;;;;;;;;;;;4.90;24.80;;;;;;4107931;28;19954;-47
2021/12/01 05:27:59;;;;;;;;;;;4.90;23.50;;;;;;4092027;28;19981;-48
2021/12/01 05:30:02;;;;;;;;;;;4.90;23.70;;;;;;4109847;28;20049;-47
2021/12/01 05:32:04;;;;;;;;;;;5.00;23.40;;;;;;4092625;28;20424;-48
2021/12/01 05:34:06;;;;;;;;;;;4.90;22.40;;;;;;4091635;28;19949;-47
2021/12/01 05:36:08;;;;;;;;;;;5.00;20.90;;;;;;4091895;28;20373;-47
2021/12/01 05:38:10;;;;;;;;;;;5.00;18.10;;;;;;4106872;28;20313;-47
2021/12/01 05:40:12;;;;;;;;;;;5.00;17.20;;;;;;4093641;28;20132;-46
2021/12/01 05:42:14;;;;;;;;;;;5.00;17.80;;;;;;4090537;28;20342;-49
2021/12/01 05:44:16;;;;;;;;;;;5.00;17.10;;;;;;4107631;28;20000;-47
2021/12/01 05:46:18;;;;;;;;;;;5.00;17.50;;;;;;4108034;28;20079;-50
2021/12/01 05:48:20;;;;;;;;;;;5.10;16.40;;;;;;4105244;28;19972;-48
2021/12/01 05:50:22;;;;;;;;;;;5.10;15.90;;;;;;4108667;28;19998;-49
2021/12/01 05:52:24;;;;;;;;;;;5.10;15.40;;;;;;4094350;28;19951;-47
2021/12/01 05:54:28;;;;;;;;;;;5.10;14.90;;;;;;4109417;28;20303;-47
2021/12/01 05:56:30;;;;;;;;;;;5.10;15.00;;;;;;4103944;28;19963;-48
2021/12/01 05:58:32;;;;;;;;;;;5.10;14.60;;;;;;4092845;28;20070;-47
2021/12/01 06:00:35;;;;;;;;;;;5.10;14.80;;;;;;4107583;28;20381;-48
2021/12/01 06:02:37;;;;;;;;;;;5.10;14.50;;;;;;4101289;28;20326;-47
2021/12/01 06:04:39;;;;;;;;;;;5.10;14.40;;;;;;4105825;28;19950;-48
2021/12/01 06:06:41;;;;;;;;;;;5.10;14.50;;;;;;4108699;28;19966;-47
2021/12/01 06:08:43;;;;;;;;;;;5.10;13.80;;;;;;4108582;28;19962;-47
2021/12/01 06:10:45;;;;;;;;;;;5.10;13.10;;;;;;4105013;28;19940;-47
2021/12/01 06:12:47;;;;;;;;;;;5.10;13.40;;;;;;4107162;28;20391;-48
2021/12/01 06:14:51;;;;;;;;;;;5.10;14.20;;;;;;4091922;28;20021;-47
2021/12/01 06:16:53;;;;;;;;;;;5.20;14.40;;;;;;4108462;28;19957;-49
2021/12/01 06:18:58;;;;;;;;;;;5.20;13.90;;;;;;4108649;28;20438;-46
2021/12/01 06:21:00;;;;;;;;;;;5.20;14.50;;;;;;4111090;28;20629;-49
2021/12/01 06:23:02;;;;;;;;;;;5.10;14.60;;;;;;4105437;28;19952;-48
2021/12/01 06:25:04;;;;;;;;;;;5.10;14.50;;;;;;4109517;28;19946;-47
2021/12/01 06:27:06;;;;;;;;;;;5.20;15.50;;;;;;4109101;28;19968;-47
2021/12/01 06:29:08;;;;;;;;;;;5.10;14.50;;;;;;4105292;28;19963;-47
2021/12/01 06:31:10;;;;;;;;;;;5.20;15.90;;;;;;4092707;28;20426;-47
2021/12/01 06:33:12;;;;;;;;;;;5.20;15.50;;;;;;4089470;28;20048;-49
2021/12/01 06:35:14;;;;;;;;;;;5.20;15.70;;;;;;4107449;28;19959;-49
2021/12/01 06:37:18;;;;;;;;;;;5.20;15.80;;;;;;4104040;28;19968;-48
2021/12/01 06:39:19;;;;;;;;;;;5.20;14.90;;;;;;4092555;28;19960;-46
2021/12/01 06:41:21;;;;;;;;;;;5.30;15.10;;;;;;4110410;28;20635;-47
2021/12/01 06:43:23;;;;;;;;;;;5.20;15.20;;;;;;4090914;28;19995;-47
2021/12/01 06:45:25;;;;;;;;;;;5.30;15.20;;;;;;4093147;28;20006;-46
2021/12/01 06:47:27;;;;;;;;;;;5.30;14.90;;;;;;4110108;28;19963;-46
2021/12/01 06:49:29;;;;;;;;;;;5.30;15.10;;;;;;4110926;28;19957;-47
2021/12/01 06:51:30;;;;;;;;;;;5.30;15.80;;;;;;4109967;28;19950;-47
2021/12/01 06:53:32;;;;;;;;;;;5.20;15.90;;;;;;4093757;28;19952;-47
2021/12/01 06:55:34;;;;;;;;;;;5.30;17.60;;;;;;4095612;28;19939;-47
2021/12/01 06:57:36;;;;;;;;;;;5.20;17.10;;;;;;4110114;28;20011;-47
2021/12/01 06:59:38;;;;;;;;;;;5.20;17.70;;;;;;4095569;28;19949;-48
2021/12/01 07:01:39;;;;;;;;;;;5.20;18.40;;;;;;4116442;28;19956;-47
2021/12/01 07:03:41;;;;;;;;;;;5.20;20.00;;;;;;4112798;28;19953;-48
2021/12/01 07:05:43;;;;;;;;;;;5.20;20.40;;;;;;4105286;28;20014;-47
2021/12/01 07:07:45;;;;;;;;;;;5.20;20.10;;;;;;4108699;28;20005;-47
2021/12/01 07:09:50;;;;;;;;;;;5.20;22.30;;;;;;4097318;28;19969;-47
2021/12/01 07:11:52;;;;;;;;;;;5.20;22.40;;;;;;4099210;28;20507;-47
2021/12/01 07:13:54;;;;;;;;;;;5.20;23.40;;;;;;4094366;28;20036;-47
2021/12/01 07:16:00;;;;;;;;;;;5.20;23.70;;;;;;4112361;28;20005;-47
2021/12/01 07:18:02;;;;;;;;;;;5.20;23.80;;;;;;4094847;28;19977;-48
2021/12/01 07:20:04;;;;;;;;;;;5.20;26.00;;;;;;4089894;28;20009;-48
2021/12/01 07:22:06;;;;;;;;;;;5.20;27.60;;;;;;4111182;28;20054;-47
2021/12/01 07:24:08;;;;;;;;;;;5.20;28.30;;;;;;4110085;28;19978;-47
2021/12/01 07:26:11;;;;;;;;;;;5.20;28.70;;;;;;4105208;28;19964;-47
2021/12/01 07:28:12;;;;;;;;;;;5.20;29.20;;;;;;4108375;28;20061;-47
2021/12/01 07:30:14;;;;;;;;;;;5.20;29.20;;;;;;4094038;28;20071;-47
2021/12/01 07:32:16;;;;;;;;;;;5.20;30.50;;;;;;4091881;28;19972;-48
2021/12/01 07:34:18;;;;;;;;;;;5.20;30.30;;;;;;4111697;28;20398;-48
2021/12/01 07:36:20;;;;;;;;;;;5.20;30.80;;;;;;4111686;28;20415;-47
2021/12/01 07:38:21;;;;;;;;;;;5.30;30.60;;;;;;4111187;28;19946;-48
2021/12/01 07:40:23;;;;;;;;;;;5.30;30.10;;;;;;4108684;28;19949;-47
2021/12/01 07:42:25;;;;;;;;;;;5.30;29.90;;;;;;4094618;28;19952;-47
2021/12/01 07:44:27;;;;;;;;;;;5.30;30.00;;;;;;4095401;28;20046;-47
2021/12/01 07:46:29;;;;;;;;;;;5.30;31.00;;;;;;4092284;28;20442;-47
2021/12/01 07:48:32;;;;;;;;;;;5.30;30.70;;;;;;4106927;28;20005;-47
2021/12/01 07:50:34;;;;;;;;;;;5.40;30.10;;;;;;4112692;28;20550;-47
2021/12/01 07:52:39;;;;;;;;;;;5.40;29.90;;;;;;4114627;28;20432;-48
2021/12/01 07:54:41;;;;;;;;;;;5.40;29.60;;;;;;4107286;28;19968;-47
2021/12/01 07:56:43;;;;;;;;;;;5.40;30.00;;;;;;4107998;28;20493;-46
2021/12/01 07:58:44;;;;;;;;;;;5.40;30.00;;;;;;4096051;28;19947;-46
2021/12/01 08:00:46;;;;;;;;;;;5.50;29.80;;;;;;4112390;28;20415;-47
2021/12/01 08:02:48;;;;;;;;;;;5.50;29.60;;;;;;4110007;28;20041;-48
2021/12/01 08:04:50;;;;;;;;;;;5.50;29.20;;;;;;4111806;28;20464;-47
2021/12/01 08:06:54;;;;;;;;;;;5.50;29.60;;;;;;4095947;28;20002;-48
2021/12/01 08:08:59;;;;;;;;;;;5.50;29.40;;;;;;4088135;28;20445;-47
2021/12/01 08:11:01;;;;;;;;;;;5.50;28.80;;;;;;4111906;28;19940;-46
2021/12/01 08:13:04;;;;;;;;;;;5.60;28.70;;;;;;4113912;28;19960;-46
2021/12/01 08:15:24;;;;;;;;;;;5.60;29.10;;;;;;4095727;28;19955;-46
2021/12/01 08:17:26;;;;;;;;;;;5.60;28.50;;;;;;4110592;28;20001;-47
2021/12/01 08:19:28;;;;;;;;;;;5.60;28.40;;;;;;4095892;28;20499;-47
2021/12/01 08:21:30;;;;;;;;;;;5.70;28.70;;;;;;4093801;28;20515;-46
2021/12/01 08:23:48;;;;;;;;;;;5.60;28.30;;;;;;4091966;28;19960;-47
2021/12/01 08:25:50;;;;;;;;;;;5.70;28.10;;;;;;4109374;28;20055;-46
2021/12/01 08:27:51;;;;;;;;;;;5.70;28.00;;;;;;4112428;28;19968;-48
2021/12/01 08:29:53;;;;;;;;;;;5.70;28.70;;;;;;4113570;28;20015;-46
2021/12/01 08:31:55;;;;;;;;;;;5.70;28.70;;;;;;4114354;28;20408;-48
2021/12/01 08:33:57;;;;;;;;;;;5.70;28.90;;;;;;4096511;28;19947;-48
2021/12/01 08:35:59;;;;;;;;;;;5.70;28.70;;;;;;4106860;28;19950;-48
2021/12/01 08:38:01;;;;;;;;;;;5.70;28.70;;;;;;4107126;28;19966;-48
2021/12/01 08:40:03;;;;;;;;;;;5.70;28.60;;;;;;4106183;28;19953;-47
2021/12/01 08:42:05;;;;;;;;;;;5.70;28.80;;;;;;4109083;28;19947;-48
2021/12/01 08:44:07;;;;;;;;;;;5.80;28.50;;;;;;4094044;28;19948;-48
2021/12/01 08:46:09;;;;;;;;;;;5.80;28.60;;;;;;4110638;28;21506;-48
2021/12/01 08:48:11;;;;;;;;;;;5.80;28.90;;;;;;4097333;28;19974;-47
2021/12/01 08:50:13;;;;;;;;;;;5.80;29.50;;;;;;4095868;28;19989;-47
2021/12/01 08:52:15;;;;;;;;;;;5.80;29.80;;;;;;4092594;28;19950;-47
2021/12/01 08:54:17;;;;;;;;;;;5.90;30.80;;;;;;4112991;28;20274;-48
2021/12/01 08:56:19;;;;;;;;;;;5.80;30.10;;;;;;4109353;28;20026;-48
2021/12/01 08:58:21;;;;;;;;;;;5.80;30.00;;;;;;4105241;28;19952;-48
2021/12/01 09:00:23;;;;;;;;;;;5.80;30.30;;;;;;4110986;28;20015;-49
2021/12/01 09:02:24;;;;;;;;;;;5.90;31.40;;;;;;4113393;28;19941;-48
2021/12/01 09:04:27;;;;;;;;;;;5.80;31.30;;;;;;4088377;28;20032;-48
2021/12/01 09:06:30;;;;;;;;;;;5.90;32.80;;;;;;4105528;28;20433;-48
2021/12/01 09:08:33;;;;;;;;;;;5.90;32.60;;;;;;4108849;28;19950;-48
2021/12/01 09:10:35;;;;;;;;;;;5.90;32.10;;;;;;4109921;28;19964;-46
2021/12/01 09:12:38;;;;;;;;;;;5.90;31.30;;;;;;4094257;28;19989;-48
2021/12/01 09:14:40;;;;;;;;;;;5.90;31.40;;;;;;4095699;28;19945;-47
2021/12/01 09:16:43;;;;;;;;;;;6.00;32.30;;;;;;4097758;28;20503;-48
2021/12/01 09:18:45;;;;;;;;;;;6.00;31.50;;;;;;4111809;28;19977;-50
2021/12/01 09:20:59;;;;;;;;;;;6.10;31.20;;;;;;4111996;28;19945;-47
2021/12/01 09:23:02;;;;;;;;;;;6.10;30.40;;;;;;4109848;28;19946;-49
2021/12/01 09:25:04;;;;;;;;;;;6.10;30.30;;;;;;4111585;28;19976;-49
2021/12/01 09:27:06;;;;;;;;;;;6.10;31.60;;;;;;4114871;28;19956;-47
2021/12/01 09:29:08;;;;;;;;;;;6.10;30.40;;;;;;4112369;28;19958;-48
2021/12/01 09:31:13;;;;;;;;;;;6.10;30.80;;;;;;4095562;28;19989;-47
2021/12/01 09:33:18;;;;;;;;;;;6.10;30.70;;;;;;4096778;28;19996;-47
2021/12/01 09:35:24;;;;;;;;;;;6.20;30.40;;;;;;4094968;28;20418;-49
2021/12/01 09:37:27;;;;;;;;;;;6.20;30.20;;;;;;4095554;28;19980;-49
2021/12/01 09:39:28;;;;;;;;;;;6.20;30.40;;;;;;4094626;28;19981;-48
2021/12/01 09:41:32;;;;;;;;;;;6.20;30.20;;;;;;4096248;28;19948;-49
2021/12/01 09:43:59;;;;;;;;;;;6.20;30.40;;;;;;4110213;28;20027;-47
2021/12/01 09:46:04;;;;;;;;;;;6.20;31.10;;;;;;4112456;28;19951;-47
2021/12/01 09:48:07;;;;;;;;;;;6.20;30.60;;;;;;4111763;28;20018;-49
2021/12/01 09:50:12;;;;;;;;;;;6.30;30.40;;;;;;4112560;28;19963;-50
2021/12/01 09:52:13;;;;;;;;;;;6.30;30.40;;;;;;4111242;28;20014;-47
2021/12/01 09:54:15;;;;;;;;;;;6.30;29.50;;;;;;4111757;28;19946;-48
2021/12/01 09:56:17;;;;;;;;;;;6.30;30.00;;;;;;4112196;28;19953;-48
2021/12/01 09:58:24;;;;;;;;;;;6.30;30.60;;;;;;4114932;28;19947;-49
2021/12/01 10:00:26;;;;;;;;;;;6.30;30.80;;;;;;4112329;28;20350;-50
2021/12/01 10:02:28;;;;;;;;;;;6.30;31.40;;;;;;4110367;28;20323;-47
2021/12/01 10:04:34;;;;;;;;;;;6.30;31.70;;;;;;4097179;28;20049;-47
2021/12/01 10:06:36;;;;;;;;;;;6.40;31.60;;;;;;4111295;28;19962;-49
2021/12/01 10:08:38;;;;;;;;;;;6.40;30.70;;;;;;4097769;28;20332;-47
2021/12/01 10:10:40;;;;;;;;;;;6.40;30.40;;;;;;4095360;28;19963;-48
2021/12/01 10:12:43;;;;;;;;;;;6.40;28.50;;;;;;4109083;28;20406;-48
2021/12/01 10:14:46;;;;;;;;;;;6.40;29.30;;;;;;4096003;28;19950;-49
2021/12/01 10:16:51;;;;;;;;;;;6.50;30.80;;;;;;4098698;28;19968;-48
2021/12/01 10:19:04;;;;;;;;;;;6.50;30.70;;;;;;4113670;28;20449;-48
2021/12/01 10:21:11;;;;;;;;;;;6.50;30.70;;;;;;4115109;28;20400;-48
2021/12/01 10:23:14;;;;;;;;;;;6.50;30.30;;;;;;4098484;29;19984;-47
2021/12/01 10:25:29;;;;;;;;;;;6.50;30.70;;;;;;4101649;28;20448;-49
2021/12/01 10:27:37;;;;;;;;;;;6.50;31.40;;;;;;4099071;28;20055;-48
2021/12/01 10:29:50;;;;;;;;;;;6.50;31.20;;;;;;4115459;28;19962;-47
2021/12/01 10:31:52;;;;;;;;;;;6.50;30.90;;;;;;4113149;28;19950;-49
2021/12/01 10:33:54;;;;;;;;;;;6.50;30.00;;;;;;4113983;28;20321;-51
2021/12/01 10:35:56;;;;;;;;;;;6.50;28.50;;;;;;4094519;28;19959;-50
2021/12/01 10:37:58;;;;;;;;;;;6.50;29.50;;;;;;4091396;28;20006;-50
2021/12/01 10:40:17;;;;;;;;;;;6.60;30.00;;;;;;4096503;28;19947;-47
2021/12/01 10:42:20;;;;;;;;;;;6.50;30.00;;;;;;4108979;28;20004;-49
2021/12/01 10:44:22;;;;;;;;;;;6.60;30.30;;;;;;4098580;28;19945;-49
2021/12/01 10:46:23;;;;;;;;;;;6.60;30.10;;;;;;4102988;28;20381;-53
2021/12/01 10:48:26;;;;;;;;;;;6.60;30.90;;;;;;4096703;28;20255;-49
2021/12/01 10:50:30;;;;;;;;;;;6.60;30.70;;;;;;4110077;28;19989;-48
2021/12/01 10:52:37;;;;;;;;;;;6.60;33.10;;;;;;4110921;28;20402;-48
2021/12/01 10:54:39;;;;;;;;;;;6.50;32.20;;;;;;4113469;28;20023;-47
2021/12/01 10:56:40;;;;;;;;;;;6.50;31.10;;;;;;4094090;28;20432;-49
2021/12/01 10:58:42;;;;;;;;;;;6.60;31.70;;;;;;4111001;28;20000;-49
2021/12/01 11:00:46;;;;;;;;;;;6.50;31.20;;;;;;4096485;28;20394;-50
2021/12/01 11:02:48;;;;;;;;;;;6.60;31.30;;;;;;4111510;28;20016;-48
2021/12/01 11:04:51;;;;;;;;;;;6.60;31.00;;;;;;4113379;28;19943;-50
2021/12/01 11:06:53;;;;;;;;;;;6.60;31.40;;;;;;4095520;28;19997;-48
2021/12/01 11:08:57;;;;;;;;;;;6.50;32.00;;;;;;4095593;28;20004;-48
2021/12/01 11:11:06;;;;;;;;;;;6.60;32.50;;;;;;4094122;28;20000;-52
2021/12/01 11:13:08;;;;;;;;;;;6.50;32.70;;;;;;4112011;28;19962;-49
2021/12/01 11:15:21;;;;;;;;;;;6.60;33.90;;;;;;4115302;28;20450;-50
2021/12/01 11:17:39;;;;;;;;;;;6.60;35.80;;;;;;4111574;28;19960;-50
2021/12/01 11:19:40;;;;;;;;;;;6.60;36.40;;;;;;4114812;28;19948;-48
2021/12/01 11:21:42;;;;;;;;;;;6.60;38.10;;;;;;4096882;28;19950;-48
2021/12/01 11:23:44;;;;;;;;;;;6.50;39.20;;;;;;4097755;28;19940;-54
2021/12/01 11:25:47;;;;;;;;;;;6.60;42.20;;;;;;4097413;28;20002;-49
2021/12/01 11:27:49;;;;;;;;;;;6.60;43.00;;;;;;4111304;28;19966;-49
2021/12/01 11:29:51;;;;;;;;;;;6.60;44.10;;;;;;4109791;28;20019;-48
2021/12/01 11:31:53;;;;;;;;;;;6.60;43.20;;;;;;4090977;28;19950;-50
2021/12/01 11:33:56;;;;;;;;;;;6.60;43.30;;;;;;4091925;28;19942;-47
2021/12/01 11:36:00;;;;;;;;;;;6.60;43.00;;;;;;4111215;28;20473;-48
2021/12/01 11:38:08;;;;;;;;;;;6.70;41.70;;;;;;4110374;28;20454;-50
2021/12/01 11:40:10;;;;;;;;;;;6.70;42.40;;;;;;4109101;28;19985;-47
2021/12/01 11:42:12;;;;;;;;;;;6.70;42.50;;;;;;4094904;28;20009;-48
2021/12/01 11:44:16;;;;;;;;;;;6.70;40.90;;;;;;4092760;28;19942;-48
2021/12/01 11:46:18;;;;;;;;;;;6.70;40.30;;;;;;4093864;28;19943;-47
2021/12/01 11:48:25;;;;;;;;;;;6.70;37.20;;;;;;4109860;28;19995;-48
2021/12/01 11:50:32;;;;;;;;;;;6.70;36.60;;;;;;4111771;28;19967;-52
2021/12/01 11:52:44;;;;;;;;;;;6.70;37.50;;;;;;4110355;28;20000;-47
2021/12/01 11:54:46;;;;;;;;;;;6.70;39.20;;;;;;4095555;28;19941;-52
2021/12/01 11:56:50;;;;;;;;;;;6.70;38.90;;;;;;4112437;28;19979;-50
2021/12/01 11:59:01;;;;;;;;;;;6.70;39.40;;;;;;4113820;28;20402;-48
2021/12/01 12:01:02;;;;;;;;;;;6.70;39.60;;;;;;4110553;28;20018;-48
2021/12/01 12:03:24;;;;;;;;;;;6.70;38.80;;;;;;4093662;28;20025;-50
2021/12/01 12:05:29;;;;;;;;;;;6.70;39.10;;;;;;4092269;28;19941;-49
2021/12/01 12:07:32;;;;;;;;;;;6.70;39.30;;;;;;4098661;28;20342;-50
2021/12/01 12:09:34;;;;;;;;;;;6.70;40.20;;;;;;4115706;28;19949;-47
2021/12/01 12:11:36;;;;;;;;;;;6.70;41.30;;;;;;4111030;28;20321;-47
2021/12/01 12:13:57;;;;;;;;;;;6.70;41.70;;;;;;4097479;28;19951;-49
2021/12/01 12:16:00;;;;;;;;;;;6.70;42.20;;;;;;4094923;28;19955;-48